< Typhoon 200105 2001 Season Typhoon 200107 >
Typhoon 200106 (KONG-REY)
General InformationTrack Information on Google MapsDetailed Wind InformationList of All Images || NewsDisaster Info.ResourceGoogle EarthGE AnimationAtom FeedGeoJSON
Detalied Best Track (Time Zone = UTC)
Year Month Day Hour Lat. Long. Pressure (hPa) Wind (kt) Class Image Chart
2001 7 21 06 24.0 151.7 1008 0 2 Image Chart
2001 7 21 12 24.5 151.5 1008 0 2 Image Chart
2001 7 21 18 24.8 151.1 1006 0 2 Image Chart
2001 7 22 00 25.0 150.4 1004 35 3 Image Chart
2001 7 22 06 25.2 149.7 1002 40 3 Image Chart
2001 7 22 12 25.3 149.1 1002 40 3 Image Chart
2001 7 22 18 25.3 148.6 1000 40 3 Image Chart
2001 7 23 00 25.2 147.9 998 40 3 Image Chart
2001 7 23 06 25.3 147.1 996 45 3 Image Chart
2001 7 23 12 25.3 146.3 992 45 3 Image Chart
2001 7 23 18 25.3 145.3 985 50 4 Image Chart
2001 7 24 00 25.5 144.0 980 55 4 Image Chart
2001 7 24 03 25.7 143.5 980 55 4 Image Chart
2001 7 24 06 25.9 142.9 980 55 4 Image Chart
2001 7 24 09 26.1 142.6 980 55 4 Image Chart
2001 7 24 12 26.4 142.1 980 55 4 Image Chart
2001 7 24 15 26.6 141.8 980 55 4 Image Chart
2001 7 24 18 26.8 141.4 980 55 4 Image Chart
2001 7 24 21 27.0 141.0 980 55 4 Image Chart
2001 7 25 00 27.2 140.6 980 55 4 Image Chart
2001 7 25 06 27.6 140.4 975 55 4 Image Chart
2001 7 25 12 28.1 140.4 970 60 4 Image Chart
2001 7 25 18 28.6 140.4 965 65 5 Image Chart
2001 7 26 00 29.3 140.8 960 70 5 Image Chart
2001 7 26 06 29.7 141.1 955 70 5 Image Chart
2001 7 26 12 30.2 141.8 955 70 5 Image Chart
2001 7 26 18 30.7 142.6 955 70 5 Image Chart
2001 7 27 00 31.2 143.5 955 70 5 Image Chart
2001 7 27 06 31.7 144.7 955 70 5 Image Chart
2001 7 27 12 32.1 146.0 960 70 5 Image Chart
2001 7 27 18 32.6 147.3 965 65 5 Image Chart
2001 7 28 00 33.2 148.5 970 65 5 Image Chart
2001 7 28 06 33.7 149.9 975 60 4 Image Chart
2001 7 28 12 34.5 151.9 980 60 4 Image Chart
2001 7 28 18 36.0 153.4 980 60 4 Image Chart
2001 7 29 00 37.2 155.0 984 0 6 Image Chart
2001 7 29 06 38.8 157.1 988 0 6 Image Chart
2001 7 29 12 40.0 159.4 988 0 6 Image Chart
2001 7 29 18 40.9 161.4 988 0 6 Image Chart
2001 7 30 00 42.4 163.3 990 0 6 Image Chart
2001 7 30 06 43.3 165.1 990 0 6 Image Chart
2001 7 30 12 44.9 168.0 992 0 6 Image Chart
2001 7 30 18 46.2 170.7 992 0 6 Image Chart
2001 7 31 00 48.2 172.6 994 0 6 Image Chart
2001 7 31 06 49.4 173.5 996 0 6 Image Chart
2001 7 31 12 50.3 174.6 998 0 6 Image Chart
2001 7 31 18 50.9 174.8 1000 0 6 Image Chart
2001 8 1 00 51.6 174.1 1002 0 6 Image Chart
2001 8 1 06 52.1 172.9 1002 0 6 Image Chart
2001 8 1 12 52.4 172.1 1004 0 6 Image Chart
2001 8 1 18 52.7 171.1 1004 0 6 Image Chart
2001 8 2 00 53.0 170.5 1006 0 6 Image Chart
2001 8 2 06 53.4 171.9 1008 0 6 Image Chart
2001 8 2 12 53.4 173.0 1008 0 6 Image Chart
2001 8 2 18 53.3 174.3 1008 0 6 Image Chart
2001 8 3 00 53.3 175.7 1010 0 6 Image Chart
2001 8 3 06 53.2 177.5 1014 0 6 Image Chart
2001 8 3 12 53.4 179.3 1016 0 6 Image Chart
Japan Meteorological Agency Best Track Data | Correction Date : 2002-01-24
< Typhoon 200105 2001 Season Typhoon 200107 >

Help